LF6626 weather

Mont Llaret Roc d'Aude Airfield
Les Angles, Languedoc-Roussillon, France

Public forecast

Using degrees Celsius for public forecast. Weather courtesy of forecast.io.

METAR (pilot weather report)

Report is more than 6 hours old.

Closest report is Pirineus - la Seu d'Urgel Airport, 30.9 nm (57.2 km) WSW. Retrieved 2019/09/20 17:00 UTC (13 hours ago):

LESU 201700Z 26006KT 220V290 9999 FEW050TCU 23/12 Q1019

TAF (pilot weather forecast)

Closest forecast is Pirineus - la Seu d'Urgel Airport, 30.9 nm (57.2 km) WSW. Retrieved 2019/09/21 03:00 UTC (3 hours ago):

TAF LESU 210200Z 2103/2203 VRB04KT 9999 SCT040 TX22/2113Z TN12/2105Z PROB40 TEMPO 2106/2118 3000 TSRA BKN012 SCT030CB BKN040 TEMPO 2112/2117 21010KT